Derby Field

KLOL · Nevada, États-Unis

METAR anciennes KLOL · Derby Field

Tu vois ci-dessous les METAR des derniers jours. Sélectionne une année pour parcourir les METAR plus anciens, à partir de l'année 2007.

24 juin 2024

Temps Code Temps Temp. Vue Base cloud Vent METAR/SPECI
04:53
V
15 °C 10 mi - 040° 040° 8 kt METAR KLOL 241153Z AUTO 04008KT 10SM CLR 15/00 A3005 RMK AO2 SLP132 T01500000 10250 20111 53005
03:53
V
15 °C 10 mi - 040° 040° 4 kt METAR KLOL 241053Z AUTO 04004KT 10SM CLR 15/01 A3004 RMK AO2 SLP129 T01500006
02:53
V
15 °C 10 mi - 090° 090° 3 kt METAR KLOL 240953Z AUTO 09003KT 10SM CLR 15/02 A3004 RMK AO2 SLP126 T01500017
01:53
V
17 °C 10 mi - 050° 050° 6 kt METAR KLOL 240853Z AUTO 05006KT 10SM CLR 17/02 A3003 RMK AO2 SLP123 T01670017 51008
00:53
V
23 °C 10 mi - 320° 320° 4 kt METAR KLOL 240753Z AUTO 32004KT 10SM CLR 23/M01 A3003 RMK AO2 SLP118 T02281006 403720117

23 juin 2024

Temps Code Temps Temp. Vue Base cloud Vent METAR/SPECI
23:53
V
22 °C 10 mi - 290° 290° 4 kt METAR KLOL 240653Z AUTO 29004KT 10SM CLR 22/M01 A3002 RMK AO2 SLP117 T02221011
22:53
V
22 °C 10 mi - 050° 050° 3 kt METAR KLOL 240553Z AUTO 05003KT 10SM CLR 22/M01 A3000 RMK AO2 SLP113 T02221011 10361 20222 53025
21:53
V
27 °C 10 mi - 290° 290° 8 kt METAR KLOL 240453Z AUTO 29008KT 10SM CLR 27/M01 A2998 RMK AO2 SLP102 T02721006
20:53
V
29 °C 10 mi - 290° 290° 13 kt METAR KLOL 240353Z AUTO 29013KT 10SM CLR 29/01 A2995 RMK AO2 SLP090 T02940011
19:53
V
32 °C 10 mi - 290° 290° 17 kt METAR KLOL 240253Z AUTO 29017KT 10SM CLR 32/02 A2992 RMK AO2 SLP085 T03170022 53004
18:53
V
34 °C 10 mi - 280° 280° 15 kt METAR KLOL 240153Z AUTO 28015KT 10SM CLR 34/01 A2990 RMK AO2 PK WND 25026/0100 SLP081 T03440006
17:53
V
35 °C 10 mi - Var Var 5 - 15 kt METAR KLOL 240053Z AUTO VRB05G15KT 10SM CLR 35/01 A2990 RMK AO2 SLP082 T03500006
16:53
V
36 °C 10 mi - 260° 260° 14 - 22 kt METAR KLOL 232353Z AUTO 26014G22KT 10SM CLR 36/00 A2991 RMK AO2 SLP083 T03610000 10372 20317 56019
15:53
V
36 °C 10 mi - 270° 270° 12 - 21 kt METAR KLOL 232253Z AUTO 27012G21KT 10SM CLR 36/M02 A2993 RMK AO2 PK WND 26029/2210 SLP088 T03611017
14:53
V
37 °C 10 mi - 230° 230° 16 - 22 kt METAR KLOL 232153Z AUTO 23016G22KT 190V250 10SM CLR 37/M02 A2995 RMK AO2 PK WND 19026/2121 SLP092 T03671022
13:53
V
36 °C 10 mi - 200° 200° 19 - 28 kt METAR KLOL 232053Z AUTO 20019G28KT 10SM CLR 36/M02 A2997 RMK AO2 PK WND 18028/2050 SLP101 T03611017 58018
12:53
V
34 °C 10 mi - 220° 220° 17 - 26 kt METAR KLOL 231953Z AUTO 22017G26KT 10SM CLR 34/M01 A3000 RMK AO2 PK WND 20026/1944 SLP111 T03441011
11:53
V
33 °C 10 mi - 180° 180° 16 - 22 kt METAR KLOL 231853Z AUTO 18016G22KT 10SM CLR 33/M02 A3002 RMK AO2 SLP113 T03331017
10:53
V
32 °C 10 mi - Var Var 3 - 14 kt METAR KLOL 231753Z AUTO VRB03G14KT 10SM CLR 32/M01 A3003 RMK AO2 SLP117 T03171011 10317 20117 58003
09:53
V
30 °C 10 mi - Var Var 4 kt METAR KLOL 231653Z AUTO VRB04KT 10SM CLR 30/M01 A3004 RMK AO2 SLP118 T03001011
08:53
V
27 °C 10 mi - 080° 080° 3 kt METAR KLOL 231553Z AUTO 08003KT 10SM CLR 27/M01 A3005 RMK AO2 SLP122 T02721006
07:53
V
21 °C 10 mi - 360° 360° 0 kt METAR KLOL 231453Z AUTO 00000KT 10SM CLR 21/00 A3004 RMK AO2 SLP125 T02110000 53008
06:53
V
17 °C 10 mi - 360° 360° 0 kt METAR KLOL 231353Z AUTO 00000KT 10SM CLR 17/02 A3004 RMK AO2 SLP124 T01720017
05:53
V
13 °C 10 mi - 360° 360° 0 kt METAR KLOL 231253Z AUTO 00000KT 10SM CLR 13/M01 A3002 RMK AO2 SLP122 T01331006
04:53
V
14 °C 10 mi - 360° 360° 0 kt METAR KLOL 231153Z AUTO 00000KT 10SM CLR 14/M01 A3002 RMK AO2 SLP120 T01441011 10294 20139 52006
03:53
V
16 °C 10 mi - 360° 360° 0 kt METAR KLOL 231053Z AUTO 00000KT 10SM CLR 16/M02 A3001 RMK AO2 SLP116 T01611017
02:53
V
18 °C 10 mi - 360° 360° 0 kt METAR KLOL 230953Z AUTO 00000KT 10SM CLR 18/M01 A3000 RMK AO2 SLP111 T01831006
01:53
V
18 °C 10 mi - 360° 360° 0 kt METAR KLOL 230853Z AUTO 00000KT 10SM CLR 18/01 A3000 RMK AO2 SLP109 T01830006 51014
00:53
V
19 °C 10 mi - Var Var 3 kt METAR KLOL 230753Z AUTO VRB03KT 10SM CLR 19/00 A2998 RMK AO2 SLP105 T01940000 403780078

22 juin 2024

Temps Code Temps Temp. Vue Base cloud Vent METAR/SPECI
23:53
V
26 °C 10 mi - 120° 120° 4 kt METAR KLOL 230653Z AUTO 12004KT 10SM CLR 26/00 A2997 RMK AO2 SLP097 T02560000
22:53
V
28 °C 10 mi - Var Var 6 kt METAR KLOL 230553Z AUTO VRB06KT 10SM CLR 28/M02 A2995 RMK AO2 PK WND 31027/0502 SLP090 T02781017 10372 20278 53020
21:53
V
30 °C 10 mi - 300° 300° 13 - 24 kt METAR KLOL 230453Z AUTO 30013G24KT 10SM CLR 30/M02 A2993 RMK AO2 PK WND 30026/0440 SLP082 T03001022
20:53
V
31 °C 10 mi - 300° 300° 12 kt METAR KLOL 230353Z AUTO 30012KT 10SM CLR 31/00 A2990 RMK AO2 SLP075 T03110000
19:53
V
34 °C 10 mi - 300° 300° 18 kt METAR KLOL 230253Z AUTO 30018KT 10SM CLR 34/M01 A2988 RMK AO2 SLP072 T03391006 53001
18:53
V
36 °C 10 mi - 280° 280° 13 kt METAR KLOL 230153Z AUTO 28013KT 10SM CLR 36/01 A2987 RMK AO2 SLP067 T03610006
17:53
V
37 °C 10 mi - 220° 220° 8 kt METAR KLOL 230053Z AUTO 22008KT 10SM CLR 37/M02 A2987 RMK AO2 SLP073 T03721022
16:53
V
37 °C 10 mi - 170° 170° 10 - 24 kt METAR KLOL 222353Z AUTO 17010G24KT 10SM CLR 37/M04 A2988 RMK AO2 SLP078 T03721039 10378 20306 58019
15:53
V
37 °C 10 mi - 180° 180° 11 - 16 kt METAR KLOL 222253Z AUTO 18011G16KT 10SM CLR 37/M04 A2991 RMK AO2 SLP085 T03671039
14:53
V
37 °C 10 mi - 190° 190° 9 - 20 kt METAR KLOL 222153Z AUTO 19009G20KT 10SM CLR 37/M03 A2993 RMK AO2 SLP090 T03671033
13:53
V
37 °C 10 mi - 190° 190° 14 - 19 kt METAR KLOL 222053Z AUTO 19014G19KT 10SM CLR 37/M02 A2994 RMK AO2 SLP096 T03671022 58012
12:53
V
35 °C 10 mi - 200° 200° 8 kt METAR KLOL 221953Z AUTO 20008KT 10SM CLR 35/M02 A2996 RMK AO2 SLP101 T03501017
11:53
V
33 °C 10 mi - Var Var 3 kt METAR KLOL 221853Z AUTO VRB03KT 10SM CLR 33/M02 A2997 RMK AO2 SLP105 T03281017
10:53
V
31 °C 10 mi - 360° 360° 0 kt METAR KLOL 221753Z AUTO 00000KT 10SM CLR 31/M02 A2998 RMK AO2 SLP109 T03061022 10311 20078 56002
09:53
V
29 °C 10 mi - 100° 100° 4 kt METAR KLOL 221653Z AUTO 10004KT 10SM CLR 29/02 A2998 RMK AO2 SLP105 T02890017
08:53
V
27 °C 10 mi - 010° 010° 7 kt METAR KLOL 221553Z AUTO 01007KT 10SM CLR 27/M02 A2999 RMK AO2 SLP106 T02671022
07:53
V
19 °C 10 mi - 360° 360° 0 kt METAR KLOL 221453Z AUTO 00000KT 10SM CLR 19/M01 A2999 RMK AO2 SLP110 T01941006 52010
06:53
V
16 °C 10 mi - 330° 330° 3 kt METAR KLOL 221353Z AUTO 33003KT 10SM CLR 16/M01 A2998 RMK AO2 SLP110 T01561011
05:53
V
9 °C 10 mi - 360° 360° 0 kt METAR KLOL 221253Z AUTO 00000KT 10SM CLR 09/M03 A2996 RMK AO2 SLP112 T00891033
04:53
V
9 °C 10 mi - 360° 360° 0 kt METAR KLOL 221153Z AUTO 00000KT 10SM CLR 09/M03 A2996 RMK AO2 SLP107 T00891033 10228 20089 53005
03:53
V
12 °C 10 mi - 100° 100° 4 kt METAR KLOL 221053Z AUTO 10004KT 10SM CLR 12/M02 A2995 RMK AO2 SLP100 T01171017
02:53
V
14 °C 10 mi - 360° 360° 0 kt METAR KLOL 220953Z AUTO 00000KT 10SM CLR 14/M01 A2994 RMK AO2 SLP098 T01441011
01:53
V
13 °C 10 mi - 360° 360° 0 kt METAR KLOL 220853Z AUTO 00000KT 10SM CLR 13/M01 A2994 RMK AO2 SLP098 T01281011 53004
00:53
V
15 °C 10 mi - 180° 180° 3 kt METAR KLOL 220753Z AUTO 18003KT 10SM CLR 15/M01 A2993 RMK AO2 SLP095 T01501006 403500139

21 juin 2024

Temps Code Temps Temp. Vue Base cloud Vent METAR/SPECI
23:53
V
19 °C 10 mi - Var Var 3 kt METAR KLOL 220653Z AUTO VRB03KT 10SM CLR 19/M07 A2993 RMK AO2 SLP091 T01941067
22:53
V
19 °C 10 mi - 360° 360° 0 kt METAR KLOL 220553Z AUTO 00000KT 10SM CLR 19/M06 A2993 RMK AO2 SLP090 T01891056 10344 20189 51015
Signaler les modifications